Airfield :
LOGIN :

Register | Disclaimer

   EN    FR    IT 

 










Legend :    VFR   Marginal VFR   IFR   Intensive IFR   Very Intensive IFR
Visi :
Ceiling :
>= 8 km
>= 3000ft
5 to 8 km
1000 to 3000 ft
1500m to 5 km
500 to 1000 ft
800 to 1500m
200 to 500 ft
< 800m
< 200 ft
Symbols :   Thunderstorms  Fog  Heavy snow  Heavy precipitations  Wind > 20 kt
SIGMETs :     Misc.  Thunderstorms  Icing  Turbulence  Mountain Waves  Volcanic Ashes






- Airport Elevation : 0 ft


ENQC - Troll C Platform

CURRENT METAR :
  • 210020Z AUTO 23033KT 9999NDV BKN025/// 06/01 Q0988 W///S6

EXPIRED METARs :
  • 202350Z AUTO 22030KT 9999NDV BKN027/// 06/01 Q0987 W///S6
  • 202320Z AUTO 22027KT 9999NDV FEW024/// 05/01 Q0987 W///S6
  • 202250Z AUTO 22028KT 9999NDV -DZ BKN020/// 05/01 Q0987 W///S6
  • 202220Z AUTO 22025KT 150V230 9999NDV FEW018/// 04/00 Q0987 W///S6
  • 202150Z AUTO 22028KT 9999NDV FEW020/// SCT080/// 05/01 Q0986 W///S6

TAF N/A



MET'MAP, your aeronautical weather chart ! - Copyright ORBIFLY December 2007 - Disclaimer

ORBIFLY MET'MAP TEAM :

Programming & Development : Alexandra Zaïnal
Concept & original design : Baudouin d'Aumeries
Assistance for programming : Marc-Olivier Méhu
Technical & hardware support : Manuel Goepfert

Contact : metmap@orbifly.com




SOURCES & CREDITS :

   NOAA